sensor_id;sensor_type;location;lat;lon;timestamp;pressure;altitude;pressure_sealevel;temperature;humidity
78383;BME280;67668;52.294;4.692;2024-02-21T00:01:16;102198.53;;;9.95;93.32
78383;BME280;67668;52.294;4.692;2024-02-21T00:03:42;102191.44;;;9.96;94.06
78383;BME280;67668;52.294;4.692;2024-02-21T00:06:07;102195.59;;;10.00;93.75
78383;BME280;67668;52.294;4.692;2024-02-21T00:08:33;102191.25;;;9.99;94.05
78383;BME280;67668;52.294;4.692;2024-02-21T00:10:58;102189.34;;;10.01;93.76
78383;BME280;67668;52.294;4.692;2024-02-21T00:13:24;102182.34;;;10.00;93.76
78383;BME280;67668;52.294;4.692;2024-02-21T00:15:49;102182.34;;;10.00;93.64
78383;BME280;67668;52.294;4.692;2024-02-21T00:18:14;102185.84;;;10.00;93.61
78383;BME280;67668;52.294;4.692;2024-02-21T00:20:40;102184.88;;;10.01;93.91
78383;BME280;67668;52.294;4.692;2024-02-21T00:23:05;102178.78;;;10.01;93.46
78383;BME280;67668;52.294;4.692;2024-02-21T00:25:30;102177.06;;;10.00;93.51
78383;BME280;67668;52.294;4.692;2024-02-21T00:27:56;102182.44;;;9.98;93.40
78383;BME280;67668;52.294;4.692;2024-02-21T00:30:21;102183.44;;;9.97;93.39
78383;BME280;67668;52.294;4.692;2024-02-21T00:32:47;102180.66;;;9.99;93.66
78383;BME280;67668;52.294;4.692;2024-02-21T00:35:13;102182.34;;;10.00;93.52
78383;BME280;67668;52.294;4.692;2024-02-21T00:37:38;102171.16;;;9.96;93.12
78383;BME280;67668;52.294;4.692;2024-02-21T00:40:04;102178.94;;;9.98;93.08
78383;BME280;67668;52.294;4.692;2024-02-21T00:42:30;102178.13;;;9.97;93.03
78383;BME280;67668;52.294;4.692;2024-02-21T00:44:55;102182.78;;;9.94;92.95
78383;BME280;67668;52.294;4.692;2024-02-21T00:47:21;102185.31;;;9.95;93.20
78383;BME280;67668;52.294;4.692;2024-02-21T00:49:46;102188.94;;;9.94;92.93
78383;BME280;67668;52.294;4.692;2024-02-21T00:52:11;102174.72;;;9.95;93.37
78383;BME280;67668;52.294;4.692;2024-02-21T00:54:37;102180.88;;;9.96;93.46
78383;BME280;67668;52.294;4.692;2024-02-21T00:57:02;102172.09;;;9.95;93.58
78383;BME280;67668;52.294;4.692;2024-02-21T00:59:27;102176.44;;;9.96;93.73
78383;BME280;67668;52.294;4.692;2024-02-21T01:01:53;102168.50;;;9.96;93.72
78383;BME280;67668;52.294;4.692;2024-02-21T01:04:18;102171.03;;;9.98;93.63
78383;BME280;67668;52.294;4.692;2024-02-21T01:06:43;102159.63;;;9.97;93.89
78383;BME280;67668;52.294;4.692;2024-02-21T01:09:09;102157.78;;;9.98;93.85
78383;BME280;67668;52.294;4.692;2024-02-21T01:11:34;102143.75;;;9.97;94.23
78383;BME280;67668;52.294;4.692;2024-02-21T01:14:00;102145.56;;;9.97;94.33
78383;BME280;67668;52.294;4.692;2024-02-21T01:16:25;102142.06;;;9.96;94.48
78383;BME280;67668;52.294;4.692;2024-02-21T01:18:51;102150.84;;;9.97;94.48
78383;BME280;67668;52.294;4.692;2024-02-21T01:21:16;102148.19;;;9.97;94.71
78383;BME280;67668;52.294;4.692;2024-02-21T01:23:41;102148.06;;;9.98;94.54
78383;BME280;67668;52.294;4.692;2024-02-21T01:26:06;102141.09;;;9.97;94.55
78383;BME280;67668;52.294;4.692;2024-02-21T01:28:34;102126.91;;;9.98;94.66
78383;BME280;67668;52.294;4.692;2024-02-21T01:30:59;102132.19;;;9.98;94.74
78383;BME280;67668;52.294;4.692;2024-02-21T01:33:24;102131.34;;;9.98;94.89
78383;BME280;67668;52.294;4.692;2024-02-21T01:35:50;102117.31;;;9.97;94.89
78383;BME280;67668;52.294;4.692;2024-02-21T01:38:15;102119.94;;;9.97;95.03
78383;BME280;67668;52.294;4.692;2024-02-21T01:40:41;102117.41;;;9.96;94.96
78383;BME280;67668;52.294;4.692;2024-02-21T01:43:15;102115.47;;;9.98;94.93
78383;BME280;67668;52.294;4.692;2024-02-21T01:45:41;102112.09;;;9.96;94.93
78383;BME280;67668;52.294;4.692;2024-02-21T01:48:06;102112.09;;;9.96;95.27
78383;BME280;67668;52.294;4.692;2024-02-21T01:50:31;102112.97;;;9.96;95.22
78383;BME280;67668;52.294;4.692;2024-02-21T01:52:56;102098.88;;;9.96;95.39
78383;BME280;67668;52.294;4.692;2024-02-21T01:55:22;102104.09;;;9.97;95.42
78383;BME280;67668;52.294;4.692;2024-02-21T01:57:47;102097.94;;;9.97;95.46
78383;BME280;67668;52.294;4.692;2024-02-21T02:00:13;102096.25;;;9.96;95.16
78383;BME280;67668;52.294;4.692;2024-02-21T02:02:40;102091.81;;;9.96;95.47
78383;BME280;67668;52.294;4.692;2024-02-21T02:05:07;102090.88;;;9.97;95.35
78383;BME280;67668;52.294;4.692;2024-02-21T02:07:33;102089.03;;;9.98;95.55
78383;BME280;67668;52.294;4.692;2024-02-21T02:09:58;102086.38;;;9.98;95.52
78383;BME280;67668;52.294;4.692;2024-02-21T02:12:24;102074.88;;;9.99;95.47
78383;BME280;67668;52.294;4.692;2024-02-21T02:15:02;102075.72;;;9.99;95.43
78383;BME280;67668;52.294;4.692;2024-02-21T02:17:30;102082.72;;;10.00;95.48
78383;BME280;67668;52.294;4.692;2024-02-21T02:19:55;102069.56;;;9.99;95.36
78383;BME280;67668;52.294;4.692;2024-02-21T02:22:25;102074.88;;;9.99;95.41
78383;BME280;67668;52.294;4.692;2024-02-21T02:24:53;102069.56;;;9.99;95.46
78383;BME280;67668;52.294;4.692;2024-02-21T02:27:18;102065.13;;;9.99;95.42
78383;BME280;67668;52.294;4.692;2024-02-21T02:29:43;102072.97;;;10.01;95.33
78383;BME280;67668;52.294;4.692;2024-02-21T02:32:09;102071.16;;;10.01;95.27
78383;BME280;67668;52.294;4.692;2024-02-21T02:34:34;102072.97;;;10.01;95.42
78383;BME280;67668;52.294;4.692;2024-02-21T02:36:59;102070.22;;;10.02;95.54
78383;BME280;67668;52.294;4.692;2024-02-21T02:39:25;102060.56;;;10.01;95.46
78383;BME280;67668;52.294;4.692;2024-02-21T02:41:50;102060.47;;;10.03;95.33
78383;BME280;67668;52.294;4.692;2024-02-21T02:44:15;102064.06;;;10.02;95.40
78383;BME280;67668;52.294;4.692;2024-02-21T02:46:41;102052.63;;;10.01;95.43
78383;BME280;67668;52.294;4.692;2024-02-21T02:49:06;102056.25;;;10.00;95.09
78383;BME280;67668;52.294;4.692;2024-02-21T02:51:32;102050.00;;;10.01;95.41
78383;BME280;67668;52.294;4.692;2024-02-21T02:53:57;102056.13;;;10.02;95.57
78383;BME280;67668;52.294;4.692;2024-02-21T02:56:22;102048.31;;;10.00;95.31
78383;BME280;67668;52.294;4.692;2024-02-21T02:58:47;102047.34;;;10.01;95.45
78383;BME280;67668;52.294;4.692;2024-02-21T03:01:13;102035.19;;;9.99;95.55
78383;BME280;67668;52.294;4.692;2024-02-21T03:03:38;102029.81;;;10.00;95.73
78383;BME280;67668;52.294;4.692;2024-02-21T03:06:04;102032.47;;;10.00;95.33
78383;BME280;67668;52.294;4.692;2024-02-21T03:08:29;102021.88;;;10.00;95.45
78383;BME280;67668;52.294;4.692;2024-02-21T03:10:55;102020.09;;;10.01;95.64
78383;BME280;67668;52.294;4.692;2024-02-21T03:13:20;102011.19;;;10.02;95.63
78383;BME280;67668;52.294;4.692;2024-02-21T03:15:45;102012.88;;;10.03;95.64
78383;BME280;67668;52.294;4.692;2024-02-21T03:18:10;102008.53;;;10.02;95.35
78383;BME280;67668;52.294;4.692;2024-02-21T03:20:36;102003.25;;;10.02;95.70
78383;BME280;67668;52.294;4.692;2024-02-21T03:23:01;101990.00;;;10.02;95.77
78383;BME280;67668;52.294;4.692;2024-02-21T03:25:26;101980.41;;;10.01;95.74
78383;BME280;67668;52.294;4.692;2024-02-21T03:27:51;101979.44;;;10.02;95.44
78383;BME280;67668;52.294;4.692;2024-02-21T03:30:17;101976.91;;;10.00;95.42
78383;BME280;67668;52.294;4.692;2024-02-21T03:32:42;101975.00;;;10.02;95.19
78383;BME280;67668;52.294;4.692;2024-02-21T03:35:08;101983.88;;;10.01;95.57
78383;BME280;67668;52.294;4.692;2024-02-21T03:37:33;101981.22;;;10.01;95.40
78383;BME280;67668;52.294;4.692;2024-02-21T03:39:59;101983.06;;;10.01;95.31
78383;BME280;67668;52.294;4.692;2024-02-21T03:42:24;101978.59;;;10.01;95.24
78383;BME280;67668;52.294;4.692;2024-02-21T03:44:50;101968.84;;;10.02;95.20
78383;BME280;67668;52.294;4.692;2024-02-21T03:47:15;101960.06;;;10.01;95.48
78383;BME280;67668;52.294;4.692;2024-02-21T03:49:40;101970.78;;;10.00;95.31
78383;BME280;67668;52.294;4.692;2024-02-21T03:52:06;101967.06;;;10.02;95.57
78383;BME280;67668;52.294;4.692;2024-02-21T03:54:31;101961.78;;;10.02;95.46
78383;BME280;67668;52.294;4.692;2024-02-21T03:56:56;101967.78;;;10.04;95.38
78383;BME280;67668;52.294;4.692;2024-02-21T03:59:22;101957.34;;;10.03;95.15
78383;BME280;67668;52.294;4.692;2024-02-21T04:01:51;101951.91;;;10.04;95.28
78383;BME280;67668;52.294;4.692;2024-02-21T04:04:17;101942.19;;;10.05;95.37
78383;BME280;67668;52.294;4.692;2024-02-21T04:06:46;101959.03;;;10.04;95.19
78383;BME280;67668;52.294;4.692;2024-02-21T04:09:11;101951.09;;;10.04;94.97
78383;BME280;67668;52.294;4.692;2024-02-21T04:11:36;101952.75;;;10.05;95.44
78383;BME280;67668;52.294;4.692;2024-02-21T04:14:02;101947.47;;;10.05;95.20
78383;BME280;67668;52.294;4.692;2024-02-21T04:16:27;101952.75;;;10.05;95.35
78383;BME280;67668;52.294;4.692;2024-02-21T04:18:52;101954.47;;;10.06;95.11
78383;BME280;67668;52.294;4.692;2024-02-21T04:21:18;101953.75;;;10.04;95.30
78383;BME280;67668;52.294;4.692;2024-02-21T04:23:43;101953.63;;;10.05;94.85
78383;BME280;67668;52.294;4.692;2024-02-21T04:26:08;101953.53;;;10.07;94.51
78383;BME280;67668;52.294;4.692;2024-02-21T04:28:34;101940.28;;;10.07;94.89
78383;BME280;67668;52.294;4.692;2024-02-21T04:30:59;101941.25;;;10.06;94.79
78383;BME280;67668;52.294;4.692;2024-02-21T04:33:25;101930.66;;;10.06;95.09
78383;BME280;67668;52.294;4.692;2024-02-21T04:35:50;101930.56;;;10.07;95.04
78383;BME280;67668;52.294;4.692;2024-02-21T04:38:15;101930.56;;;10.07;95.45
78383;BME280;67668;52.294;4.692;2024-02-21T04:40:40;101922.72;;;10.06;95.20
78383;BME280;67668;52.294;4.692;2024-02-21T04:43:06;101922.72;;;10.06;95.33
78383;BME280;67668;52.294;4.692;2024-02-21T04:45:31;101926.22;;;10.06;95.35
78383;BME280;67668;52.294;4.692;2024-02-21T04:47:56;101914.88;;;10.04;95.08
78383;BME280;67668;52.294;4.692;2024-02-21T04:50:22;101919.13;;;10.07;94.98
78383;BME280;67668;52.294;4.692;2024-02-21T04:52:47;101921.03;;;10.05;95.24
78383;BME280;67668;52.294;4.692;2024-02-21T04:55:12;101919.22;;;10.05;94.88
78383;BME280;67668;52.294;4.692;2024-02-21T04:57:38;101916.50;;;10.07;94.95
78383;BME280;67668;52.294;4.692;2024-02-21T05:00:03;101903.25;;;10.07;94.63
78383;BME280;67668;52.294;4.692;2024-02-21T05:02:29;101907.56;;;10.08;95.00
78383;BME280;67668;52.294;4.692;2024-02-21T05:04:55;101907.56;;;10.08;94.88
78383;BME280;67668;52.294;4.692;2024-02-21T05:07:20;101899.63;;;10.08;94.81
78383;BME280;67668;52.294;4.692;2024-02-21T05:09:45;101889.06;;;10.08;94.91
78383;BME280;67668;52.294;4.692;2024-02-21T05:12:11;101885.47;;;10.09;95.15
78383;BME280;67668;52.294;4.692;2024-02-21T05:14:36;101879.22;;;10.10;95.35
78383;BME280;67668;52.294;4.692;2024-02-21T05:17:03;101881.88;;;10.10;95.41
78383;BME280;67668;52.294;4.692;2024-02-21T05:19:28;101880.94;;;10.11;95.21
78383;BME280;67668;52.294;4.692;2024-02-21T05:21:53;101875.63;;;10.11;95.22
78383;BME280;67668;52.294;4.692;2024-02-21T05:24:18;101874.78;;;10.10;95.17
78383;BME280;67668;52.294;4.692;2024-02-21T05:26:44;101864.06;;;10.12;95.45
78383;BME280;67668;52.294;4.692;2024-02-21T05:29:15;101861.44;;;10.12;95.75
78383;BME280;67668;52.294;4.692;2024-02-21T05:34:19;101854.34;;;10.12;95.12
78383;BME280;67668;52.294;4.692;2024-02-21T05:36:44;101840.28;;;10.12;95.20
78383;BME280;67668;52.294;4.692;2024-02-21T05:39:10;101839.31;;;10.13;95.66
78383;BME280;67668;52.294;4.692;2024-02-21T05:41:35;101829.69;;;10.12;95.37
78383;BME280;67668;52.294;4.692;2024-02-21T05:44:00;101827.03;;;10.12;95.22
78383;BME280;67668;52.294;4.692;2024-02-21T05:46:26;101824.31;;;10.13;95.15
78383;BME280;67668;52.294;4.692;2024-02-21T05:48:51;101823.44;;;10.13;95.46
78383;BME280;67668;52.294;4.692;2024-02-21T05:51:16;101822.59;;;10.12;95.32
78383;BME280;67668;52.294;4.692;2024-02-21T05:53:42;101818.16;;;10.13;95.61
78383;BME280;67668;52.294;4.692;2024-02-21T05:56:11;101808.53;;;10.12;95.55
78383;BME280;67668;52.294;4.692;2024-02-21T05:58:37;101816.38;;;10.13;95.14
78383;BME280;67668;52.294;4.692;2024-02-21T06:01:02;101816.38;;;10.13;94.71
78383;BME280;67668;52.294;4.692;2024-02-21T06:03:29;101810.31;;;10.11;94.67
78383;BME280;67668;52.294;4.692;2024-02-21T06:05:54;101811.19;;;10.12;94.84
78383;BME280;67668;52.294;4.692;2024-02-21T06:08:19;101810.47;;;10.10;94.36
78383;BME280;67668;52.294;4.692;2024-02-21T06:10:45;101813.94;;;10.10;94.40
78383;BME280;67668;52.294;4.692;2024-02-21T06:13:10;101815.75;;;10.10;94.48
78383;BME280;67668;52.294;4.692;2024-02-21T06:15:36;101810.47;;;10.10;94.51
78383;BME280;67668;52.294;4.692;2024-02-21T06:18:01;101811.41;;;10.09;94.38
78383;BME280;67668;52.294;4.692;2024-02-21T06:20:26;101812.25;;;10.09;94.31
78383;BME280;67668;52.294;4.692;2024-02-21T06:22:52;101821.97;;;10.09;94.46
78383;BME280;67668;52.294;4.692;2024-02-21T06:25:17;101827.28;;;10.09;94.59
78383;BME280;67668;52.294;4.692;2024-02-21T06:27:43;101823.78;;;10.08;94.78
78383;BME280;67668;52.294;4.692;2024-02-21T06:30:09;101832.56;;;10.09;94.82
78383;BME280;67668;52.294;4.692;2024-02-21T06:32:34;101828.22;;;10.08;94.70
78383;BME280;67668;52.294;4.692;2024-02-21T06:35:00;101817.53;;;10.09;94.46
78383;BME280;67668;52.294;4.692;2024-02-21T06:37:27;101816.69;;;10.09;94.62
78383;BME280;67668;52.294;4.692;2024-02-21T06:39:52;101819.34;;;10.09;94.66
78383;BME280;67668;52.294;4.692;2024-02-21T06:42:17;101811.41;;;10.09;94.46
78383;BME280;67668;52.294;4.692;2024-02-21T06:44:44;101810.56;;;10.08;94.38
78383;BME280;67668;52.294;4.692;2024-02-21T06:47:09;101811.41;;;10.09;94.65
78383;BME280;67668;52.294;4.692;2024-02-21T06:49:34;101805.28;;;10.08;94.58
78383;BME280;67668;52.294;4.692;2024-02-21T06:52:00;101798.41;;;10.06;94.89
78383;BME280;67668;52.294;4.692;2024-02-21T06:54:25;101799.97;;;10.08;94.80
78383;BME280;67668;52.294;4.692;2024-02-21T06:56:50;101792.19;;;10.07;94.64
78383;BME280;67668;52.294;4.692;2024-02-21T06:59:16;101792.19;;;10.07;94.66
78383;BME280;67668;52.294;4.692;2024-02-21T07:01:49;101787.72;;;10.07;94.50
78383;BME280;67668;52.294;4.692;2024-02-21T07:04:14;101778.09;;;10.06;94.39
78383;BME280;67668;52.294;4.692;2024-02-21T07:06:40;101781.59;;;10.07;94.10
78383;BME280;67668;52.294;4.692;2024-02-21T07:09:05;101769.31;;;10.06;93.90
78383;BME280;67668;52.294;4.692;2024-02-21T07:11:31;101768.47;;;10.05;93.76
78383;BME280;67668;52.294;4.692;2024-02-21T07:13:56;101763.19;;;10.05;94.10
78383;BME280;67668;52.294;4.692;2024-02-21T07:16:21;101767.63;;;10.05;94.25
78383;BME280;67668;52.294;4.692;2024-02-21T07:18:47;101758.84;;;10.04;94.24
78383;BME280;67668;52.294;4.692;2024-02-21T07:21:12;101765.97;;;10.04;93.66
78383;BME280;67668;52.294;4.692;2024-02-21T07:23:40;101755.38;;;10.04;93.72
78383;BME280;67668;52.294;4.692;2024-02-21T07:26:05;101750.09;;;10.04;93.85
78383;BME280;67668;52.294;4.692;2024-02-21T07:28:31;101743.09;;;10.03;93.68
78383;BME280;67668;52.294;4.692;2024-02-21T07:30:56;101731.69;;;10.02;94.04
78383;BME280;67668;52.294;4.692;2024-02-21T07:33:21;101733.47;;;10.02;94.17
78383;BME280;67668;52.294;4.692;2024-02-21T07:35:46;101725.53;;;10.02;93.75
78383;BME280;67668;52.294;4.692;2024-02-21T07:38:12;101720.25;;;10.02;94.00
78383;BME280;67668;52.294;4.692;2024-02-21T07:40:37;101720.25;;;10.02;93.91
78383;BME280;67668;52.294;4.692;2024-02-21T07:43:03;101722.19;;;10.00;94.12
78383;BME280;67668;52.294;4.692;2024-02-21T07:45:28;101720.38;;;10.00;94.02
78383;BME280;67668;52.294;4.692;2024-02-21T07:47:54;101722.06;;;10.01;94.57
78383;BME280;67668;52.294;4.692;2024-02-21T07:50:19;101723.03;;;10.00;94.38
78383;BME280;67668;52.294;4.692;2024-02-21T07:52:44;101715.94;;;10.01;94.51
78383;BME280;67668;52.294;4.692;2024-02-21T07:55:10;101709.69;;;10.02;94.56
78383;BME280;67668;52.294;4.692;2024-02-21T07:57:37;101708.84;;;10.01;94.26
78383;BME280;67668;52.294;4.692;2024-02-21T08:00:03;101711.38;;;10.03;94.63
78383;BME280;67668;52.294;4.692;2024-02-21T08:02:34;101707.03;;;10.02;94.41
78383;BME280;67668;52.294;4.692;2024-02-21T08:05:00;101707.03;;;10.02;94.79
78383;BME280;67668;52.294;4.692;2024-02-21T08:07:25;101704.38;;;10.02;94.33
78383;BME280;67668;52.294;4.692;2024-02-21T08:09:54;101707.03;;;10.02;94.87
78383;BME280;67668;52.294;4.692;2024-02-21T08:12:19;101707.88;;;10.02;94.69
78383;BME280;67668;52.294;4.692;2024-02-21T08:14:45;101705.13;;;10.04;94.54
78383;BME280;67668;52.294;4.692;2024-02-21T08:17:10;101691.06;;;10.03;94.45
78383;BME280;67668;52.294;4.692;2024-02-21T08:19:36;101677.00;;;10.03;94.15
78383;BME280;67668;52.294;4.692;2024-02-21T08:22:01;101685.88;;;10.02;94.33
78383;BME280;67668;52.294;4.692;2024-02-21T08:24:26;101676.16;;;10.02;94.34
78383;BME280;67668;52.294;4.692;2024-02-21T08:26:52;101673.63;;;10.01;93.88
78383;BME280;67668;52.294;4.692;2024-02-21T08:29:17;101665.81;;;9.99;94.22
78383;BME280;67668;52.294;4.692;2024-02-21T08:31:42;101670.16;;;10.00;94.25
78383;BME280;67668;52.294;4.692;2024-02-21T08:34:07;101660.50;;;9.99;94.50
78383;BME280;67668;52.294;4.692;2024-02-21T08:36:34;101649.22;;;9.97;93.97
78383;BME280;67668;52.294;4.692;2024-02-21T08:39:01;101653.44;;;10.00;94.17
78383;BME280;67668;52.294;4.692;2024-02-21T08:41:27;101643.81;;;9.99;93.88
78383;BME280;67668;52.294;4.692;2024-02-21T08:43:53;101647.41;;;9.98;94.13
78383;BME280;67668;52.294;4.692;2024-02-21T08:46:19;101645.59;;;9.98;93.55
78383;BME280;67668;52.294;4.692;2024-02-21T08:48:46;101650.03;;;9.98;94.00
78383;BME280;67668;52.294;4.692;2024-02-21T08:51:12;101646.59;;;9.97;93.85
78383;BME280;67668;52.294;4.692;2024-02-21T08:53:37;101637.81;;;9.97;93.74
78383;BME280;67668;52.294;4.692;2024-02-21T08:56:03;101643.94;;;9.97;93.62
78383;BME280;67668;52.294;4.692;2024-02-21T08:58:28;101637.81;;;9.97;93.38
78383;BME280;67668;52.294;4.692;2024-02-21T09:00:54;101637.81;;;9.97;93.70
78383;BME280;67668;52.294;4.692;2024-02-21T09:03:19;101639.59;;;9.96;93.74
78383;BME280;67668;52.294;4.692;2024-02-21T09:05:45;101625.53;;;9.96;94.11
78383;BME280;67668;52.294;4.692;2024-02-21T09:08:11;101622.19;;;9.94;94.11
78383;BME280;67668;52.294;4.692;2024-02-21T09:10:36;101612.31;;;9.96;93.85
78383;BME280;67668;52.294;4.692;2024-02-21T09:13:02;101610.50;;;9.96;94.01
78383;BME280;67668;52.294;4.692;2024-02-21T09:15:28;101598.13;;;9.97;94.08
78383;BME280;67668;52.294;4.692;2024-02-21T09:17:54;101589.34;;;9.96;94.10
78383;BME280;67668;52.294;4.692;2024-02-21T09:20:19;101585.88;;;9.96;94.18
78383;BME280;67668;52.294;4.692;2024-02-21T09:22:45;101567.34;;;9.96;93.93
78383;BME280;67668;52.294;4.692;2024-02-21T09:25:10;101565.66;;;9.95;93.89
78383;BME280;67668;52.294;4.692;2024-02-21T09:27:38;101566.28;;;9.98;94.18
78383;BME280;67668;52.294;4.692;2024-02-21T09:30:05;101554.03;;;9.97;94.18
78383;BME280;67668;52.294;4.692;2024-02-21T09:32:30;101559.19;;;9.99;93.50
78383;BME280;67668;52.294;4.692;2024-02-21T09:34:57;101548.50;;;10.00;93.42
78383;BME280;67668;52.294;4.692;2024-02-21T09:37:23;101534.44;;;10.00;93.43
78383;BME280;67668;52.294;4.692;2024-02-21T09:39:48;101530.84;;;10.01;93.19
78383;BME280;67668;52.294;4.692;2024-02-21T09:42:20;101518.44;;;10.01;93.60
78383;BME280;67668;52.294;4.692;2024-02-21T09:44:46;101520.13;;;10.02;93.49
78383;BME280;67668;52.294;4.692;2024-02-21T09:47:19;101511.22;;;10.03;92.90
78383;BME280;67668;52.294;4.692;2024-02-21T09:49:47;101501.75;;;10.01;92.98
78383;BME280;67668;52.294;4.692;2024-02-21T09:52:14;101498.84;;;10.04;92.53
78383;BME280;67668;52.294;4.692;2024-02-21T09:54:40;101497.03;;;10.04;92.92
78383;BME280;67668;52.294;4.692;2024-02-21T09:57:09;101492.59;;;10.05;93.26
78383;BME280;67668;52.294;4.692;2024-02-21T09:59:35;101495.13;;;10.06;93.10
78383;BME280;67668;52.294;4.692;2024-02-21T10:02:00;101478.50;;;10.04;93.01
78383;BME280;67668;52.294;4.692;2024-02-21T10:04:26;101477.44;;;10.07;93.36
78383;BME280;67668;52.294;4.692;2024-02-21T10:06:53;101480.09;;;10.07;93.22
78383;BME280;67668;52.294;4.692;2024-02-21T10:09:22;101472.16;;;10.07;93.03
78383;BME280;67668;52.294;4.692;2024-02-21T10:11:49;101472.03;;;10.08;93.22
78383;BME280;67668;52.294;4.692;2024-02-21T10:14:15;101460.50;;;10.09;93.46
78383;BME280;67668;52.294;4.692;2024-02-21T10:16:40;101450.63;;;10.11;92.46
78383;BME280;67668;52.294;4.692;2024-02-21T10:19:06;101440.88;;;10.12;93.21
78383;BME280;67668;52.294;4.692;2024-02-21T10:21:31;101439.00;;;10.14;92.69
78383;BME280;67668;52.294;4.692;2024-02-21T10:23:56;101432.84;;;10.13;92.57
78383;BME280;67668;52.294;4.692;2024-02-21T10:26:22;101430.06;;;10.15;92.50
78383;BME280;67668;52.294;4.692;2024-02-21T10:28:47;101412.41;;;10.15;92.42
78383;BME280;67668;52.294;4.692;2024-02-21T10:31:24;101413.25;;;10.16;92.28
78383;BME280;67668;52.294;4.692;2024-02-21T10:33:54;101401.84;;;10.15;91.82
78383;BME280;67668;52.294;4.692;2024-02-21T10:36:20;101407.00;;;10.17;91.66
78383;BME280;67668;52.294;4.692;2024-02-21T10:38:45;101406.03;;;10.18;91.80
78383;BME280;67668;52.294;4.692;2024-02-21T10:41:14;101405.06;;;10.19;91.74
78383;BME280;67668;52.294;4.692;2024-02-21T10:43:40;101395.44;;;10.18;91.51
78383;BME280;67668;52.294;4.692;2024-02-21T10:46:06;101398.81;;;10.20;91.90
78383;BME280;67668;52.294;4.692;2024-02-21T10:48:41;101402.41;;;10.19;91.80
78383;BME280;67668;52.294;4.692;2024-02-21T10:51:15;101416.34;;;10.21;92.06
78383;BME280;67668;52.294;4.692;2024-02-21T10:56:31;101412.63;;;10.23;91.90
78383;BME280;67668;52.294;4.692;2024-02-21T10:59:02;101402.91;;;10.24;92.00
78383;BME280;67668;52.294;4.692;2024-02-21T11:01:28;101407.22;;;10.25;91.88
78383;BME280;67668;52.294;4.692;2024-02-21T11:03:56;101404.44;;;10.26;91.04
78383;BME280;67668;52.294;4.692;2024-02-21T11:06:22;101404.56;;;10.25;90.73
78383;BME280;67668;52.294;4.692;2024-02-21T11:09:01;101393.03;;;10.26;91.07
78383;BME280;67668;52.294;4.692;2024-02-21T11:11:28;101383.28;;;10.26;91.43
78383;BME280;67668;52.294;4.692;2024-02-21T11:14:06;101373.66;;;10.25;91.54
78383;BME280;67668;52.294;4.692;2024-02-21T11:16:38;101357.69;;;10.27;91.18
78383;BME280;67668;52.294;4.692;2024-02-21T11:19:30;101351.41;;;10.28;91.38
78383;BME280;67668;52.294;4.692;2024-02-21T11:21:57;101346.09;;;10.28;91.18
78383;BME280;67668;52.294;4.692;2024-02-21T11:24:33;101338.06;;;10.29;90.78
78383;BME280;67668;52.294;4.692;2024-02-21T11:27:22;101325.78;;;10.28;90.47
78383;BME280;67668;52.294;4.692;2024-02-21T11:29:55;101313.50;;;10.27;90.08
78383;BME280;67668;52.294;4.692;2024-02-21T11:32:21;101320.50;;;10.28;89.68
78383;BME280;67668;52.294;4.692;2024-02-21T11:34:56;101312.44;;;10.30;90.15
78383;BME280;67668;52.294;4.692;2024-02-21T11:37:25;101313.28;;;10.30;90.23
78383;BME280;67668;52.294;4.692;2024-02-21T11:39:51;101293.94;;;10.30;90.01
78383;BME280;67668;52.294;4.692;2024-02-21T11:42:18;101294.63;;;10.32;90.32
78383;BME280;67668;52.294;4.692;2024-02-21T11:44:44;101273.47;;;10.32;90.47
78383;BME280;67668;52.294;4.692;2024-02-21T11:47:09;101279.47;;;10.34;90.69
78383;BME280;67668;52.294;4.692;2024-02-21T11:49:39;101263.59;;;10.34;89.48
78383;BME280;67668;52.294;4.692;2024-02-21T11:52:07;101248.53;;;10.34;88.89
78383;BME280;67668;52.294;4.692;2024-02-21T11:54:33;101232.56;;;10.36;88.59
78383;BME280;67668;52.294;4.692;2024-02-21T11:56:59;101238.69;;;10.36;87.86
78383;BME280;67668;52.294;4.692;2024-02-21T11:59:25;101242.19;;;10.37;88.12
78383;BME280;67668;52.294;4.692;2024-02-21T12:01:50;101237.56;;;10.39;87.72
78383;BME280;67668;52.294;4.692;2024-02-21T12:04:19;101200.53;;;10.39;87.65
78383;BME280;67668;52.294;4.692;2024-02-21T12:06:45;101212.06;;;10.38;87.57
78383;BME280;67668;52.294;4.692;2024-02-21T12:09:14;101203.88;;;10.41;88.05
78383;BME280;67668;52.294;4.692;2024-02-21T12:11:40;101202.81;;;10.44;87.83
78383;BME280;67668;52.294;4.692;2024-02-21T12:14:05;101182.31;;;10.46;86.57
78383;BME280;67668;52.294;4.692;2024-02-21T12:16:32;101178.72;;;10.47;87.03
78383;BME280;67668;52.294;4.692;2024-02-21T12:18:59;101176.19;;;10.45;88.20
78383;BME280;67668;52.294;4.692;2024-02-21T12:21:30;101168.13;;;10.47;87.73
78383;BME280;67668;52.294;4.692;2024-02-21T12:24:10;101170.78;;;10.47;87.74
78383;BME280;67668;52.294;4.692;2024-02-21T12:26:36;101156.44;;;10.49;87.61
78383;BME280;67668;52.294;4.692;2024-02-21T12:29:02;101147.38;;;10.52;86.91
78383;BME280;67668;52.294;4.692;2024-02-21T12:31:27;101133.88;;;10.55;87.34
78383;BME280;67668;52.294;4.692;2024-02-21T12:33:53;101120.25;;;10.59;87.71
78383;BME280;67668;52.294;4.692;2024-02-21T12:36:18;101117.47;;;10.61;87.59
78383;BME280;67668;52.294;4.692;2024-02-21T12:38:44;101102.28;;;10.63;87.07
78383;BME280;67668;52.294;4.692;2024-02-21T12:41:09;101110.09;;;10.64;87.22
78383;BME280;67668;52.294;4.692;2024-02-21T12:43:35;101103.81;;;10.65;86.76
78383;BME280;67668;52.294;4.692;2024-02-21T12:46:00;101101.75;;;10.69;86.90
78383;BME280;67668;52.294;4.692;2024-02-21T12:48:25;101092.00;;;10.69;86.98
78383;BME280;67668;52.294;4.692;2024-02-21T12:50:51;101083.91;;;10.71;86.56
78383;BME280;67668;52.294;4.692;2024-02-21T12:53:18;101087.28;;;10.73;87.56